createdAt,value
2022-10-03T00:03:30.647Z,98882.08
2022-10-03T00:07:10.545Z,98886.30
2022-10-03T00:10:31.546Z,98877.33
2022-10-03T00:14:11.210Z,98883.22
2022-10-03T00:17:42.998Z,98887.52
2022-10-03T00:21:37.377Z,98885.92
2022-10-03T00:24:54.645Z,98878.05
2022-10-03T00:28:05.820Z,98880.90
2022-10-03T00:31:28.219Z,98886.63
2022-10-03T00:34:59.129Z,98882.64
2022-10-03T00:38:18.313Z,98887.27
2022-10-03T00:41:41.486Z,98891.63
2022-10-03T00:45:27.168Z,98895.94
2022-10-03T00:48:53.609Z,98893.11
2022-10-03T00:52:00.006Z,98896.80
2022-10-03T00:55:13.879Z,98893.83
2022-10-03T00:58:26.037Z,98896.52
2022-10-03T01:01:58.833Z,98894.41
2022-10-03T01:05:36.600Z,98891.25
2022-10-03T01:09:38.777Z,98894.91
2022-10-03T01:13:04.710Z,98890.72
2022-10-03T01:16:44.628Z,98896.23
2022-10-03T01:20:19.647Z,98897.69
2022-10-03T01:23:52.517Z,98908.22
2022-10-03T01:27:22.279Z,98902.93
2022-10-03T01:30:31.745Z,98905.56
2022-10-03T01:33:48.503Z,98911.55
2022-10-03T01:37:22.245Z,98912.48
2022-10-03T01:40:54.422Z,98915.34
2022-10-03T01:44:13.107Z,98924.03
2022-10-03T01:47:35.423Z,98929.16
2022-10-03T01:51:18.360Z,98929.16
2022-10-03T01:54:55.931Z,98936.16
2022-10-03T01:58:23.408Z,98930.30
2022-10-03T02:02:14.023Z,98933.41
2022-10-03T02:05:46.873Z,98937.38
2022-10-03T02:09:12.691Z,98941.58
2022-10-03T02:12:26.154Z,98941.89
2022-10-03T02:16:00.931Z,98954.48
2022-10-03T02:19:24.553Z,98959.34
2022-10-03T02:22:46.180Z,98970.88
2022-10-03T02:25:53.145Z,98974.80
2022-10-03T02:29:26.281Z,98979.56
2022-10-03T02:33:08.103Z,98973.97
2022-10-03T02:37:02.032Z,98980.16
2022-10-03T02:40:47.639Z,98974.16
2022-10-03T02:44:24.564Z,98979.47
2022-10-03T02:48:30.847Z,98985.45
2022-10-03T02:51:54.764Z,98994.02
2022-10-03T02:55:35.580Z,99001.61
2022-10-03T02:59:34.529Z,99004.48
2022-10-03T03:03:25.706Z,99001.02
2022-10-03T03:06:59.357Z,99006.89
2022-10-03T03:10:35.648Z,99009.44
2022-10-03T03:14:01.790Z,99010.14
2022-10-03T03:17:30.332Z,99015.04
2022-10-03T03:20:48.027Z,99015.00
2022-10-03T03:24:17.487Z,99023.84
2022-10-03T03:27:43.734Z,99029.92
2022-10-03T03:31:09.006Z,99042.13
2022-10-03T03:34:19.644Z,99042.63
2022-10-03T03:37:30.267Z,99056.06
2022-10-03T03:40:47.376Z,99056.93
2022-10-03T03:44:36.816Z,99051.20
2022-10-03T03:48:04.532Z,99045.88
2022-10-03T03:51:28.138Z,99053.68
2022-10-03T03:55:04.667Z,99054.27
2022-10-03T03:58:41.631Z,99057.00
2022-10-03T04:02:06.864Z,99062.45
2022-10-03T04:05:38.998Z,99055.97
2022-10-03T04:09:18.534Z,99064.20
2022-10-03T04:13:04.838Z,99064.83
2022-10-03T04:16:32.644Z,99068.92
2022-10-03T04:20:11.408Z,99079.77
2022-10-03T04:23:40.894Z,99079.59
2022-10-03T04:27:06.618Z,99077.43
2022-10-03T04:30:36.338Z,99093.07
2022-10-03T04:34:05.851Z,99091.05
2022-10-03T04:37:35.245Z,99100.02
2022-10-03T04:41:29.431Z,99102.39
2022-10-03T04:45:11.825Z,99109.26
2022-10-03T04:48:40.403Z,99109.43
2022-10-03T04:52:29.008Z,99112.19
2022-10-03T04:56:02.736Z,99114.56
2022-10-03T04:59:47.517Z,99116.23
2022-10-03T05:03:29.158Z,99127.42
2022-10-03T05:06:54.031Z,99133.17
2022-10-03T05:10:18.786Z,99143.02
2022-10-03T05:14:06.597Z,99145.36
2022-10-03T05:17:32.184Z,99144.98
2022-10-03T05:20:48.744Z,99142.53
2022-10-03T05:24:20.907Z,99147.31
2022-10-03T05:28:03.881Z,99152.66
2022-10-03T05:31:20.831Z,99156.19
2022-10-03T05:35:06.431Z,99162.63
2022-10-03T05:38:35.038Z,99164.31
2022-10-03T05:42:10.937Z,99163.30
2022-10-03T05:45:12.488Z,99171.41
2022-10-03T05:48:54.741Z,99180.46
2022-10-03T05:52:32.872Z,99183.52
2022-10-03T05:56:16.256Z,99188.80
2022-10-03T06:00:17.788Z,99184.47
2022-10-03T06:04:20.976Z,99195.33
2022-10-03T06:07:49.134Z,99190.85
2022-10-03T06:11:27.158Z,99195.91
2022-10-03T06:14:52.529Z,99200.88
2022-10-03T06:18:38.903Z,99194.66
2022-10-03T06:22:35.938Z,99199.08
2022-10-03T06:25:52.176Z,99201.83
2022-10-03T06:29:35.947Z,99204.77
2022-10-03T06:33:17.923Z,99213.75
2022-10-03T06:36:31.250Z,99213.11
2022-10-03T06:40:18.462Z,99218.07
2022-10-03T06:43:55.146Z,99214.59
2022-10-03T06:47:17.483Z,99210.97
2022-10-03T06:51:08.933Z,99221.80
2022-10-03T06:54:55.729Z,99220.36
2022-10-03T06:58:35.440Z,99230.87
2022-10-03T07:02:10.176Z,99233.00
2022-10-03T07:05:43.783Z,99238.44
2022-10-03T07:09:18.147Z,99235.98
2022-10-03T07:12:58.899Z,99234.88
2022-10-03T07:16:28.621Z,99233.93
2022-10-03T07:20:01.263Z,99240.54
2022-10-03T07:23:25.970Z,99246.72
2022-10-03T07:27:11.669Z,99238.19
2022-10-03T07:30:32.426Z,99242.17
2022-10-03T07:33:44.939Z,99244.83
2022-10-03T07:37:37.907Z,99244.02
2022-10-03T07:41:04.511Z,99251.59
2022-10-03T07:44:23.607Z,99257.56
2022-10-03T07:48:08.533Z,99247.97
2022-10-03T07:51:51.667Z,99250.64
2022-10-03T07:55:29.527Z,99258.55
2022-10-03T07:59:01.236Z,99252.05
2022-10-03T08:06:14.289Z,99249.61
2022-10-03T08:09:31.370Z,99252.20
2022-10-03T09:40:07.178Z,99326.70
2022-10-03T09:43:29.143Z,99321.10
2022-10-03T09:46:59.144Z,99318.11
2022-10-03T09:50:27.857Z,99321.44
2022-10-03T09:54:08.240Z,99330.70
2022-10-03T09:57:52.370Z,99323.73
2022-10-03T10:01:24.328Z,99326.88
2022-10-03T10:05:15.071Z,99339.16
2022-10-03T10:08:27.590Z,99342.62
2022-10-03T10:12:18.626Z,99342.55
2022-10-03T10:15:54.237Z,99351.49
2022-10-03T10:19:16.451Z,99362.83
2022-10-03T10:22:51.511Z,99356.47
2022-10-03T10:26:29.373Z,99357.27
2022-10-03T10:29:31.468Z,99359.33
2022-10-03T10:32:56.402Z,99349.70
2022-10-03T10:36:39.597Z,99353.36
2022-10-03T10:39:53.469Z,99343.42
2022-10-03T10:43:25.744Z,99349.45
2022-10-03T10:47:07.304Z,99351.86
2022-10-03T10:51:09.821Z,99350.97
2022-10-03T10:55:00.582Z,99352.58
2022-10-03T10:58:39.747Z,99352.78
2022-10-03T11:02:24.448Z,99352.95
2022-10-03T11:06:12.112Z,99350.48
2022-10-03T11:09:51.673Z,99350.76
2022-10-03T11:13:37.623Z,99354.28
2022-10-03T11:17:21.462Z,99361.31
2022-10-03T11:21:08.334Z,99360.81
2022-10-03T11:24:46.060Z,99363.20
2022-10-03T11:28:47.145Z,99359.02
2022-10-03T11:32:19.758Z,99363.23
2022-10-03T11:36:02.276Z,99360.31
2022-10-03T11:39:20.686Z,99358.44
2022-10-03T11:42:57.341Z,99363.87
2022-10-03T11:46:08.397Z,99361.69
2022-10-03T11:49:40.873Z,99368.37
2022-10-03T11:52:59.341Z,99370.55
2022-10-03T11:56:36.422Z,99361.35
2022-10-03T12:00:05.325Z,99360.27
2022-10-03T12:03:37.336Z,99356.26
2022-10-03T12:07:21.353Z,99357.18
2022-10-03T12:10:51.925Z,99356.26
2022-10-03T12:14:35.669Z,99356.75
2022-10-03T12:17:50.754Z,99362.89
2022-10-03T12:21:26.544Z,99360.77
2022-10-03T12:24:43.841Z,99359.17
2022-10-03T12:28:08.966Z,99362.47
2022-10-03T12:31:53.674Z,99360.59
2022-10-03T12:35:07.857Z,99361.84
2022-10-03T12:38:41.628Z,99356.14
2022-10-03T12:42:13.810Z,99354.09
2022-10-03T12:45:32.585Z,99351.22
2022-10-03T12:49:18.246Z,99353.44
2022-10-03T12:52:31.785Z,99364.09
2022-10-03T12:55:42.626Z,99366.69
2022-10-03T12:59:10.967Z,99375.09
2022-10-03T13:02:46.705Z,99375.29
2022-10-03T13:06:26.686Z,99381.56
2022-10-03T13:10:03.300Z,99375.50
2022-10-03T13:13:19.116Z,99374.42
2022-10-03T13:16:50.382Z,99388.16
2022-10-03T13:20:17.487Z,99380.80
2022-10-03T13:23:42.174Z,99375.94
2022-10-03T13:27:28.051Z,99376.72
2022-10-03T13:30:45.048Z,99378.05
2022-10-03T13:33:49.374Z,99378.64
2022-10-03T13:36:53.220Z,99377.56
2022-10-03T13:40:07.005Z,99378.05
2022-10-03T13:43:12.934Z,99378.26
2022-10-03T13:46:35.688Z,99378.37
2022-10-03T13:49:47.510Z,99385.88
2022-10-03T13:53:10.294Z,99375.02
2022-10-03T13:56:23.754Z,99372.12
2022-10-03T13:59:41.153Z,99378.42
2022-10-03T14:03:16.082Z,99375.52
2022-10-03T14:06:47.550Z,99381.70
2022-10-03T14:10:16.080Z,99383.77
2022-10-03T14:13:50.134Z,99385.30
2022-10-03T14:17:10.676Z,99386.83
2022-10-03T14:20:42.672Z,99393.81
2022-10-03T14:23:59.223Z,99404.14
2022-10-03T14:27:15.072Z,99398.00
2022-10-03T14:30:24.758Z,99395.78
2022-10-03T14:33:46.062Z,99396.27
2022-10-03T14:37:17.448Z,99403.84
2022-10-03T14:40:42.068Z,99402.30
2022-10-03T14:44:00.848Z,99406.19
2022-10-03T14:47:03.693Z,99413.45
2022-10-03T14:50:13.395Z,99413.11
2022-10-03T14:53:32.068Z,99427.66
2022-10-03T14:56:37.793Z,99433.03
2022-10-03T14:59:50.427Z,99435.31
2022-10-03T15:03:00.707Z,99432.66
2022-10-03T15:06:26.458Z,99439.73
2022-10-03T15:09:41.033Z,99440.22
2022-10-03T15:12:47.390Z,99445.26
2022-10-03T15:15:54.886Z,99445.44
2022-10-03T15:19:11.069Z,99436.82
2022-10-03T15:22:23.331Z,99439.93
2022-10-03T15:25:40.541Z,99440.70
2022-10-03T15:29:06.991Z,99445.78
2022-10-03T15:32:13.110Z,99444.72
2022-10-03T15:35:19.741Z,99459.09
2022-10-03T15:38:31.964Z,99468.85
2022-10-03T15:41:43.677Z,99471.06
2022-10-03T15:45:05.792Z,99469.91
2022-10-03T15:48:14.701Z,99468.33
2022-10-03T15:51:23.574Z,99469.07
2022-10-03T15:54:39.290Z,99474.55
2022-10-03T15:57:40.612Z,99475.19
2022-10-03T16:00:47.856Z,99479.52
2022-10-03T16:04:14.702Z,99474.45
2022-10-03T16:07:43.334Z,99479.75
2022-10-03T16:10:59.191Z,99481.30
2022-10-03T16:14:28.416Z,99482.48
2022-10-03T16:17:51.363Z,99477.00
2022-10-03T16:20:58.324Z,99477.83
2022-10-03T16:24:04.538Z,99478.38
2022-10-03T16:27:23.358Z,99473.93
2022-10-03T16:30:32.750Z,99476.97
2022-10-03T16:33:57.290Z,99480.69
2022-10-03T16:37:01.401Z,99484.80
2022-10-03T16:40:14.922Z,99478.45
2022-10-03T16:43:21.455Z,99487.30
2022-10-03T16:46:32.711Z,99485.94
2022-10-03T16:50:00.843Z,99486.78
2022-10-03T16:53:08.762Z,99492.27
2022-10-03T16:56:22.667Z,99489.50
2022-10-03T16:59:32.087Z,99498.25
2022-10-03T17:02:35.656Z,99492.55
2022-10-03T17:05:41.772Z,99490.42
2022-10-03T17:08:49.290Z,99490.95
2022-10-03T17:11:55.249Z,99492.11
2022-10-03T17:15:01.681Z,99484.41
2022-10-03T17:18:26.453Z,99487.90
2022-10-03T17:21:43.197Z,99493.97
2022-10-03T17:25:18.093Z,99487.81
2022-10-03T17:28:32.215Z,99485.38
2022-10-03T17:31:51.286Z,99490.64
2022-10-03T17:35:14.253Z,99499.78
2022-10-03T17:38:48.795Z,99499.99
2022-10-03T17:41:51.772Z,99503.71
2022-10-03T17:45:35.466Z,99498.49
2022-10-03T17:48:53.928Z,99494.28
2022-10-03T17:52:00.870Z,99490.02
2022-10-03T17:55:12.408Z,99488.96
2022-10-03T17:58:27.066Z,99490.64
2022-10-03T18:01:36.412Z,99492.91
2022-10-03T18:04:52.803Z,99489.25
2022-10-03T18:08:00.649Z,99487.28
2022-10-03T18:11:09.841Z,99486.35
2022-10-03T18:14:34.926Z,99492.31
2022-10-03T18:17:48.972Z,99511.19
2022-10-03T18:21:29.444Z,99526.78
2022-10-03T18:25:01.793Z,99542.16
2022-10-03T18:28:17.243Z,99537.64
2022-10-03T18:31:32.876Z,99534.22
2022-10-03T18:34:59.844Z,99519.81
2022-10-03T18:38:32.211Z,99521.72
2022-10-03T18:41:38.257Z,99530.48
2022-10-03T18:44:47.182Z,99532.75
2022-10-03T18:48:00.738Z,99540.86
2022-10-03T18:51:12.925Z,99541.31
2022-10-03T18:54:33.398Z,99542.69
2022-10-03T18:57:49.290Z,99549.34
2022-10-03T19:01:02.875Z,99547.73
2022-10-03T19:04:30.547Z,99539.33
2022-10-03T19:07:32.996Z,99535.22
2022-10-03T19:10:35.716Z,99521.92
2022-10-03T19:14:11.394Z,99525.89
2022-10-03T19:17:52.677Z,99525.10
2022-10-03T19:21:05.729Z,99525.08
2022-10-03T19:24:30.518Z,99523.71
2022-10-03T19:27:30.557Z,99525.08
2022-10-03T19:30:39.807Z,99517.09
2022-10-03T19:33:48.291Z,99519.90
2022-10-03T19:36:53.489Z,99512.28
2022-10-03T19:39:59.499Z,99516.94
2022-10-03T19:43:06.672Z,99516.31
2022-10-03T19:46:34.937Z,99516.10
2022-10-03T19:49:53.477Z,99511.89
2022-10-03T19:52:59.324Z,99513.66
2022-10-03T19:56:05.262Z,99509.80
2022-10-03T19:59:18.791Z,99508.96
2022-10-03T20:02:13.464Z,99514.95
2022-10-03T20:05:19.325Z,99522.50
2022-10-03T20:08:44.781Z,99524.02
2022-10-03T20:12:03.296Z,99515.70
2022-10-03T20:15:09.008Z,99513.06
2022-10-03T20:18:15.304Z,99513.99
2022-10-03T20:21:25.650Z,99513.47
2022-10-03T20:24:45.255Z,99503.88
2022-10-03T20:27:54.406Z,99509.98
2022-10-03T20:31:06.250Z,99513.65
2022-10-03T20:34:13.700Z,99505.30
2022-10-03T20:37:36.476Z,99507.06
2022-10-03T20:40:52.624Z,99508.33
2022-10-03T20:44:11.095Z,99505.45
2022-10-03T20:47:30.042Z,99502.62
2022-10-03T20:50:56.692Z,99497.23
2022-10-03T20:54:03.552Z,99506.28
2022-10-03T20:57:19.049Z,99514.50
2022-10-03T21:00:38.872Z,99516.39
2022-10-03T21:03:58.401Z,99512.07
2022-10-03T21:07:12.805Z,99506.20
2022-10-03T21:10:34.718Z,99498.22
2022-10-03T21:13:58.473Z,99494.72
2022-10-03T21:17:05.305Z,99487.12
2022-10-03T21:20:18.060Z,99477.22
2022-10-03T21:23:33.578Z,99478.28
2022-10-03T21:26:42.413Z,99466.48
2022-10-03T21:29:50.134Z,99468.69
2022-10-03T21:33:14.600Z,99472.72
2022-10-03T21:36:24.295Z,99482.62
2022-10-03T21:39:37.253Z,99494.20
2022-10-03T21:42:53.457Z,99496.95
2022-10-03T21:46:07.383Z,99490.54
2022-10-03T21:49:48.111Z,99497.92
2022-10-03T21:53:25.977Z,99505.51
2022-10-03T21:56:52.535Z,99494.31
2022-10-03T22:00:17.692Z,99503.91
2022-10-03T22:03:45.520Z,99508.09
2022-10-03T22:07:17.706Z,99508.02
2022-10-03T22:10:42.787Z,99508.09
2022-10-03T22:13:51.112Z,99512.30
2022-10-03T22:17:23.367Z,99503.33
2022-10-03T22:20:37.776Z,99506.30
2022-10-03T22:24:00.553Z,99507.91
2022-10-03T22:27:13.419Z,99504.09
2022-10-03T22:30:32.608Z,99503.86
2022-10-03T22:33:53.243Z,99516.16
2022-10-03T22:36:58.713Z,99509.39
2022-10-03T22:40:05.810Z,99507.55
2022-10-03T22:43:07.780Z,99512.56
2022-10-03T22:46:15.465Z,99507.41
2022-10-03T22:49:27.075Z,99507.17
2022-10-03T22:52:40.330Z,99504.82
2022-10-03T22:55:39.666Z,99501.21
2022-10-03T22:58:45.086Z,99503.04
2022-10-03T23:01:51.135Z,99503.33
2022-10-03T23:05:07.719Z,99506.34
2022-10-03T23:08:55.645Z,99504.16
2022-10-03T23:12:02.685Z,99516.72
2022-10-03T23:15:08.000Z,99511.16
2022-10-03T23:18:24.879Z,99509.19
2022-10-03T23:21:30.271Z,99522.50
2022-10-03T23:24:47.840Z,99514.80
2022-10-03T23:28:05.158Z,99522.95
2022-10-03T23:31:11.604Z,99522.69
2022-10-03T23:34:16.809Z,99521.75
2022-10-03T23:37:29.799Z,99516.49
2022-10-03T23:40:52.530Z,99515.45
2022-10-03T23:44:04.288Z,99515.77
2022-10-03T23:47:10.739Z,99511.98
2022-10-03T23:50:17.063Z,99519.88
2022-10-03T23:53:22.209Z,99518.41
2022-10-03T23:56:51.534Z,99521.71
2022-10-03T23:59:57.748Z,99521.24
